»·PEaware :: N112PC KCXP-KBOI

N112PC :: KCXP-KBOI

FLIGHT INFORMATION

Flight Status: Arrived
Operator: Privately registered:
United States
More flights under this callsign
Pilot: Gabor H. (24209)
Aircraft: PILATUS PC-12 EAGLE
(PC12)
More flights by this aircraft type
Origin: KCXP Carson
United States
Destination: KBOI Boise Air Terminal/Gowen
United States
More flights between these airports :: More routes between these airports
Route: +FMG J7 BOI
File this flight plan on PilotEdge
Remarks:
Altitude:
(Current/Filed)
25,000ft
Speed:
(Current/Filed)
260kts
Departed: 05-Jun-19 02:04 PM
Arrived: 05-Jun-19 03:19 PM
Distance/Time
Traveled:
306nm/1:14
Distance/Time
To Go:
Arrived

Flight Plot

Page will automatically refresh every two minutes.

Flight plan parsing failed; only flown route is shown


Map Options




Map Legend


Flown Route
Filed Route
Departure Airport
Arrival Airport
Navaid (VOR, NDB)
Fix

Horizontal Profiles

Position Reports

Time Latitude Longitude Heading Altitude Ground
Speed
05-Jun-19 13:44 39.196784 -119.746041 274 4700ft 0kts
05-Jun-19 13:45 39.196784 -119.746041 274 4700ft 0kts
05-Jun-19 13:46 39.196784 -119.746041 274 4700ft 0kts
05-Jun-19 13:47 39.196784 -119.746041 274 4700ft 0kts
05-Jun-19 13:48 39.196784 -119.746041 274 4700ft 0kts
05-Jun-19 13:49 39.196784 -119.746041 274 4700ft 0kts
05-Jun-19 13:50 39.196784 -119.746041 274 4700ft 0kts
05-Jun-19 13:51 39.196784 -119.746041 274 4700ft 0kts
05-Jun-19 13:52 39.196784 -119.746041 274 4700ft 0kts
05-Jun-19 13:53 39.196784 -119.746041 274 4700ft 0kts
05-Jun-19 13:54 39.196784 -119.746041 274 4700ft 0kts
05-Jun-19 13:55 39.196785 -119.746051 274 4700ft 0kts
05-Jun-19 13:56 39.196785 -119.746051 274 4700ft 0kts
05-Jun-19 13:57 39.195019 -119.744355 92 4700ft 9kts
05-Jun-19 13:58 39.193131 -119.740667 111 4700ft 20kts
05-Jun-19 13:59 39.191201 -119.732413 106 4700ft 13kts
05-Jun-19 14:00 39.189296 -119.725125 73 4700ft 1kts
05-Jun-19 14:01 39.189296 -119.725121 73 4700ft 0kts
05-Jun-19 14:02 39.189297 -119.725121 73 4700ft 0kts
05-Jun-19 14:03 39.191958 -119.733325 286 4803ft 95kts
05-Jun-19 14:04 39.175999 -119.734084 105 6146ft 165kts
05-Jun-19 14:05 39.194153 -119.679474 28 7682ft 175kts
05-Jun-19 14:06 39.229549 -119.637034 53 9225ft 176kts
05-Jun-19 14:07 39.260251 -119.585110 52 10779ft 195kts
05-Jun-19 14:08 39.308659 -119.568907 334 12306ft 200kts
05-Jun-19 14:09 39.361316 -119.596940 333 13778ft 202kts
05-Jun-19 14:10 39.417245 -119.618253 341 15319ft 220kts
05-Jun-19 14:12 39.479084 -119.639000 341 16799ft 227kts
05-Jun-19 14:13 39.528935 -119.648279 4 18022ft 229kts
05-Jun-19 14:14 39.591537 -119.621352 17 19518ft 243kts
05-Jun-19 14:15 39.654122 -119.587391 18 20988ft 243kts
05-Jun-19 14:16 39.715812 -119.553107 18 22476ft 239kts
05-Jun-19 14:17 39.776517 -119.519127 18 23964ft 235kts
05-Jun-19 14:18 39.837177 -119.485257 18 25031ft 249kts
05-Jun-19 14:19 39.905054 -119.447325 19 25059ft 275kts
05-Jun-19 14:20 39.976202 -119.407208 19 25055ft 281kts
05-Jun-19 14:21 40.048250 -119.366608 19 25042ft 282kts
05-Jun-19 14:22 40.120162 -119.325933 19 25057ft 282kts
05-Jun-19 14:23 40.192207 -119.285215 19 25054ft 282kts
05-Jun-19 14:24 40.264401 -119.244097 19 25053ft 282kts
05-Jun-19 14:25 40.336329 -119.203153 18 25054ft 282kts
05-Jun-19 14:26 40.408346 -119.162058 19 25053ft 282kts
05-Jun-19 14:27 40.480385 -119.120823 19 25053ft 282kts
05-Jun-19 14:28 40.552432 -119.079448 19 25054ft 283kts
05-Jun-19 14:29 40.624821 -119.037998 19 25055ft 283kts
05-Jun-19 14:29 40.684763 -119.003540 19 25056ft 283kts
05-Jun-19 14:31 40.769052 -118.954909 19 25057ft 283kts
05-Jun-19 14:32 40.841207 -118.913151 19 25058ft 283kts
05-Jun-19 14:32 40.901453 -118.878196 19 25059ft 283kts
05-Jun-19 14:34 40.985979 -118.829049 19 25051ft 284kts
05-Jun-19 14:35 41.058291 -118.786887 19 25057ft 284kts
05-Jun-19 14:35 41.118543 -118.751678 19 25066ft 284kts
05-Jun-19 14:36 41.190820 -118.709351 19 25066ft 284kts
05-Jun-19 14:37 41.263149 -118.666889 19 25062ft 284kts
05-Jun-19 14:38 41.335467 -118.624324 19 25061ft 284kts
05-Jun-19 14:40 41.420055 -118.574415 19 25065ft 284kts
05-Jun-19 14:40 41.480486 -118.538670 19 25063ft 285kts
05-Jun-19 14:41 41.552861 -118.495761 19 25062ft 285kts
05-Jun-19 14:42 41.625269 -118.452726 19 25061ft 285kts
05-Jun-19 14:43 41.697668 -118.409591 19 25055ft 285kts
05-Jun-19 14:44 41.770287 -118.366214 19 25053ft 285kts
05-Jun-19 14:45 41.842656 -118.322880 19 25052ft 285kts
05-Jun-19 14:46 41.915012 -118.279443 19 25050ft 285kts
05-Jun-19 14:47 41.987372 -118.235895 19 25048ft 285kts
05-Jun-19 14:48 42.059713 -118.192247 19 25047ft 285kts
05-Jun-19 14:49 42.132069 -118.148478 19 25045ft 285kts
05-Jun-19 14:50 42.204365 -118.104631 19 25044ft 285kts
05-Jun-19 14:51 42.276926 -118.060510 19 25043ft 285kts
05-Jun-19 14:52 42.349356 -118.016342 19 25042ft 286kts
05-Jun-19 14:53 42.422078 -117.971873 19 25041ft 288kts
05-Jun-19 14:54 42.495394 -117.926900 19 25041ft 290kts
05-Jun-19 14:55 42.569736 -117.878056 31 24434ft 307kts
05-Jun-19 14:56 42.631003 -117.796023 46 23392ft 312kts
05-Jun-19 14:57 42.686395 -117.705319 48 21913ft 311kts
05-Jun-19 14:58 42.740583 -117.613632 49 20415ft 310kts
05-Jun-19 14:59 42.793249 -117.523686 49 18945ft 309kts
05-Jun-19 15:00 42.846721 -117.431970 49 17441ft 308kts
05-Jun-19 15:01 42.899202 -117.341512 49 17032ft 296kts
05-Jun-19 15:02 42.950062 -117.253536 49 17041ft 295kts
05-Jun-19 15:03 43.001167 -117.165032 49 17023ft 295kts
05-Jun-19 15:04 43.052801 -117.075440 49 16399ft 305kts
05-Jun-19 15:05 43.105737 -116.983279 50 14903ft 305kts
05-Jun-19 15:06 43.158026 -116.891913 50 13396ft 298kts
05-Jun-19 15:07 43.208329 -116.803645 50 11900ft 287kts
05-Jun-19 15:08 43.257003 -116.718050 51 10394ft 278kts
05-Jun-19 15:09 43.303985 -116.635121 52 9090ft 264kts
05-Jun-19 15:10 43.350145 -116.558550 44 8752ft 266kts
05-Jun-19 15:11 43.404050 -116.490336 42 7251ft 254kts
05-Jun-19 15:12 43.455190 -116.426449 42 5748ft 235kts
05-Jun-19 15:13 43.497816 -116.372602 42 4242ft 187kts
05-Jun-19 15:14 43.532574 -116.327982 42 3526ft 141kts
05-Jun-19 15:15 43.566885 -116.299451 23 3495ft 144kts
05-Jun-19 15:16 43.578519 -116.267656 114 3381ft 107kts
05-Jun-19 15:17 43.567531 -116.235236 115 2837ft 48kts
05-Jun-19 15:18 43.566354 -116.233882 261 2837ft 0kts
05-Jun-19 15:19 43.566153 -116.238087 267 2837ft 21kts
05-Jun-19 15:20 43.565521 -116.243939 224 2837ft 11kts
05-Jun-19 15:21 43.565833 -116.244252 91 2837ft 0kts
05-Jun-19 15:22 43.565833 -116.244252 91 2837ft 0kts
05-Jun-19 15:23 43.565833 -116.244252 91 2837ft 0kts
05-Jun-19 15:24 43.565833 -116.244252 91 2837ft 0kts
05-Jun-19 15:25 43.565833 -116.244252 91 2837ft 0kts
05-Jun-19 15:26 43.565833 -116.244252 91 2837ft 0kts
05-Jun-19 15:27 43.565833 -116.244252 91 2837ft 0kts
05-Jun-19 15:28 43.565833 -116.244252 91 2837ft 0kts
05-Jun-19 15:29 43.565833 -116.244252 91 2837ft 0kts
05-Jun-19 15:30 43.565833 -116.244252 91 2837ft 0kts
05-Jun-19 15:31 43.565833 -116.244252 91 2837ft 0kts

Navigation Log

Ident Type
Flight plan parsing failed, navigation log unavailable